sensor_id;sensor_type;location;lat;lon;timestamp;temperature;humidity
46676;DHT22;32412;51.478;5.694;2024-01-06T00:02:16;7.30;99.90
46676;DHT22;32412;51.478;5.694;2024-01-06T00:04:41;7.30;99.90
46676;DHT22;32412;51.478;5.694;2024-01-06T00:07:07;7.30;99.90
46676;DHT22;32412;51.478;5.694;2024-01-06T00:09:33;7.30;99.90
46676;DHT22;32412;51.478;5.694;2024-01-06T00:11:58;7.20;99.90
46676;DHT22;32412;51.478;5.694;2024-01-06T00:14:24;7.20;99.90
46676;DHT22;32412;51.478;5.694;2024-01-06T00:16:49;7.20;99.90
46676;DHT22;32412;51.478;5.694;2024-01-06T00:19:15;7.20;99.90
46676;DHT22;32412;51.478;5.694;2024-01-06T00:21:43;7.20;99.90
46676;DHT22;32412;51.478;5.694;2024-01-06T00:24:08;7.10;99.90
46676;DHT22;32412;51.478;5.694;2024-01-06T00:26:34;7.10;99.90
46676;DHT22;32412;51.478;5.694;2024-01-06T00:29:00;7.10;99.90
46676;DHT22;32412;51.478;5.694;2024-01-06T00:31:25;7.10;99.90
46676;DHT22;32412;51.478;5.694;2024-01-06T00:33:51;7.10;99.90
46676;DHT22;32412;51.478;5.694;2024-01-06T00:36:16;7.00;99.90
46676;DHT22;32412;51.478;5.694;2024-01-06T00:38:42;7.00;99.90
46676;DHT22;32412;51.478;5.694;2024-01-06T00:41:08;7.00;99.90
46676;DHT22;32412;51.478;5.694;2024-01-06T00:43:33;7.00;99.90
46676;DHT22;32412;51.478;5.694;2024-01-06T00:45:59;7.00;99.90
46676;DHT22;32412;51.478;5.694;2024-01-06T00:48:24;7.00;99.90
46676;DHT22;32412;51.478;5.694;2024-01-06T00:50:50;7.00;99.90
46676;DHT22;32412;51.478;5.694;2024-01-06T00:53:16;7.00;99.90
46676;DHT22;32412;51.478;5.694;2024-01-06T00:55:41;7.00;99.90
46676;DHT22;32412;51.478;5.694;2024-01-06T00:58:07;6.90;99.90
46676;DHT22;32412;51.478;5.694;2024-01-06T01:00:34;6.90;99.90
46676;DHT22;32412;51.478;5.694;2024-01-06T01:02:59;6.90;99.90
46676;DHT22;32412;51.478;5.694;2024-01-06T01:05:25;6.90;99.90
46676;DHT22;32412;51.478;5.694;2024-01-06T01:07:50;6.80;99.90
46676;DHT22;32412;51.478;5.694;2024-01-06T01:10:16;6.80;99.90
46676;DHT22;32412;51.478;5.694;2024-01-06T01:12:42;6.60;99.90
46676;DHT22;32412;51.478;5.694;2024-01-06T01:15:08;6.70;99.90
46676;DHT22;32412;51.478;5.694;2024-01-06T01:17:33;6.60;99.90
46676;DHT22;32412;51.478;5.694;2024-01-06T01:19:59;6.60;99.90
46676;DHT22;32412;51.478;5.694;2024-01-06T01:22:24;6.50;99.90
46676;DHT22;32412;51.478;5.694;2024-01-06T01:24:50;6.50;99.90
46676;DHT22;32412;51.478;5.694;2024-01-06T01:27:16;6.50;99.90
46676;DHT22;32412;51.478;5.694;2024-01-06T01:29:41;6.40;99.90
46676;DHT22;32412;51.478;5.694;2024-01-06T01:32:07;6.40;99.90
46676;DHT22;32412;51.478;5.694;2024-01-06T01:34:33;6.40;99.90
46676;DHT22;32412;51.478;5.694;2024-01-06T01:36:59;6.40;99.90
46676;DHT22;32412;51.478;5.694;2024-01-06T01:39:25;6.40;99.90
46676;DHT22;32412;51.478;5.694;2024-01-06T01:41:51;6.30;99.90
46676;DHT22;32412;51.478;5.694;2024-01-06T01:44:16;6.30;99.90
46676;DHT22;32412;51.478;5.694;2024-01-06T01:46:42;6.30;99.90
46676;DHT22;32412;51.478;5.694;2024-01-06T01:49:07;6.30;99.90
46676;DHT22;32412;51.478;5.694;2024-01-06T01:51:34;6.30;99.90
46676;DHT22;32412;51.478;5.694;2024-01-06T01:54:01;6.30;99.90
46676;DHT22;32412;51.478;5.694;2024-01-06T01:56:28;6.30;99.90
46676;DHT22;32412;51.478;5.694;2024-01-06T01:58:54;6.20;99.90
46676;DHT22;32412;51.478;5.694;2024-01-06T02:01:20;6.20;99.90
46676;DHT22;32412;51.478;5.694;2024-01-06T02:03:46;6.10;99.90
46676;DHT22;32412;51.478;5.694;2024-01-06T02:06:12;6.10;99.90
46676;DHT22;32412;51.478;5.694;2024-01-06T02:08:38;6.10;99.90
46676;DHT22;32412;51.478;5.694;2024-01-06T02:11:04;6.10;99.90
46676;DHT22;32412;51.478;5.694;2024-01-06T02:13:35;6.10;99.90
46676;DHT22;32412;51.478;5.694;2024-01-06T02:16:02;6.10;99.90
46676;DHT22;32412;51.478;5.694;2024-01-06T02:18:27;6.10;99.90
46676;DHT22;32412;51.478;5.694;2024-01-06T02:20:56;6.10;99.90
46676;DHT22;32412;51.478;5.694;2024-01-06T02:23:23;6.10;99.90
46676;DHT22;32412;51.478;5.694;2024-01-06T02:25:48;6.10;99.90
46676;DHT22;32412;51.478;5.694;2024-01-06T02:28:14;6.10;99.90
46676;DHT22;32412;51.478;5.694;2024-01-06T02:30:40;6.10;99.90
46676;DHT22;32412;51.478;5.694;2024-01-06T02:33:05;6.10;99.90
46676;DHT22;32412;51.478;5.694;2024-01-06T02:35:31;6.00;99.90
46676;DHT22;32412;51.478;5.694;2024-01-06T02:37:56;6.10;99.90
46676;DHT22;32412;51.478;5.694;2024-01-06T02:40:22;6.10;99.90
46676;DHT22;32412;51.478;5.694;2024-01-06T02:42:48;6.10;99.90
46676;DHT22;32412;51.478;5.694;2024-01-06T02:45:13;6.10;99.90
46676;DHT22;32412;51.478;5.694;2024-01-06T02:47:39;6.10;99.90
46676;DHT22;32412;51.478;5.694;2024-01-06T02:50:05;6.10;99.90
46676;DHT22;32412;51.478;5.694;2024-01-06T02:52:31;6.00;99.90
46676;DHT22;32412;51.478;5.694;2024-01-06T02:54:57;6.00;99.90
46676;DHT22;32412;51.478;5.694;2024-01-06T02:57:22;6.00;99.90
46676;DHT22;32412;51.478;5.694;2024-01-06T02:59:48;5.90;99.90
46676;DHT22;32412;51.478;5.694;2024-01-06T03:02:14;5.90;99.90
46676;DHT22;32412;51.478;5.694;2024-01-06T03:04:39;5.80;99.90
46676;DHT22;32412;51.478;5.694;2024-01-06T03:07:05;5.80;99.90
46676;DHT22;32412;51.478;5.694;2024-01-06T03:09:30;5.70;99.90
46676;DHT22;32412;51.478;5.694;2024-01-06T03:11:56;5.70;99.90
46676;DHT22;32412;51.478;5.694;2024-01-06T03:14:22;5.60;99.90
46676;DHT22;32412;51.478;5.694;2024-01-06T03:16:48;5.60;99.90
46676;DHT22;32412;51.478;5.694;2024-01-06T03:19:13;5.60;99.90
46676;DHT22;32412;51.478;5.694;2024-01-06T03:21:39;5.60;99.90
46676;DHT22;32412;51.478;5.694;2024-01-06T03:24:06;5.60;99.90
46676;DHT22;32412;51.478;5.694;2024-01-06T03:26:32;5.60;99.90
46676;DHT22;32412;51.478;5.694;2024-01-06T03:28:58;5.50;99.90
46676;DHT22;32412;51.478;5.694;2024-01-06T03:31:24;5.50;99.90
46676;DHT22;32412;51.478;5.694;2024-01-06T03:33:50;5.40;99.90
46676;DHT22;32412;51.478;5.694;2024-01-06T03:36:19;5.40;99.90
46676;DHT22;32412;51.478;5.694;2024-01-06T03:38:44;5.40;99.90
46676;DHT22;32412;51.478;5.694;2024-01-06T03:41:10;5.50;99.90
46676;DHT22;32412;51.478;5.694;2024-01-06T03:43:36;5.40;99.90
46676;DHT22;32412;51.478;5.694;2024-01-06T03:46:01;5.40;99.90
46676;DHT22;32412;51.478;5.694;2024-01-06T03:48:27;5.40;99.90
46676;DHT22;32412;51.478;5.694;2024-01-06T03:50:53;5.40;99.90
46676;DHT22;32412;51.478;5.694;2024-01-06T03:53:19;5.40;99.90
46676;DHT22;32412;51.478;5.694;2024-01-06T03:55:44;5.40;99.90
46676;DHT22;32412;51.478;5.694;2024-01-06T03:58:10;5.40;99.90
46676;DHT22;32412;51.478;5.694;2024-01-06T04:00:36;5.40;99.90
46676;DHT22;32412;51.478;5.694;2024-01-06T04:03:01;5.40;99.90
46676;DHT22;32412;51.478;5.694;2024-01-06T04:05:27;5.40;99.90
46676;DHT22;32412;51.478;5.694;2024-01-06T04:07:53;5.30;99.90
46676;DHT22;32412;51.478;5.694;2024-01-06T04:10:19;5.30;99.90
46676;DHT22;32412;51.478;5.694;2024-01-06T04:12:44;5.20;99.90
46676;DHT22;32412;51.478;5.694;2024-01-06T04:15:10;5.20;99.90
46676;DHT22;32412;51.478;5.694;2024-01-06T04:17:35;5.20;99.90
46676;DHT22;32412;51.478;5.694;2024-01-06T04:20:01;5.20;99.90
46676;DHT22;32412;51.478;5.694;2024-01-06T04:22:27;5.20;99.90
46676;DHT22;32412;51.478;5.694;2024-01-06T04:24:52;5.20;99.90
46676;DHT22;32412;51.478;5.694;2024-01-06T04:27:18;5.20;99.90
46676;DHT22;32412;51.478;5.694;2024-01-06T04:29:43;5.20;99.90
46676;DHT22;32412;51.478;5.694;2024-01-06T04:32:09;5.20;99.90
46676;DHT22;32412;51.478;5.694;2024-01-06T04:34:35;5.10;99.90
46676;DHT22;32412;51.478;5.694;2024-01-06T04:37:00;5.10;99.90
46676;DHT22;32412;51.478;5.694;2024-01-06T04:39:26;5.10;99.90
46676;DHT22;32412;51.478;5.694;2024-01-06T04:41:52;5.10;99.90
46676;DHT22;32412;51.478;5.694;2024-01-06T04:44:20;5.00;99.90
46676;DHT22;32412;51.478;5.694;2024-01-06T04:46:46;5.00;99.90
46676;DHT22;32412;51.478;5.694;2024-01-06T04:49:11;5.00;99.90
46676;DHT22;32412;51.478;5.694;2024-01-06T04:51:37;5.00;99.90
46676;DHT22;32412;51.478;5.694;2024-01-06T04:54:03;5.00;99.90
46676;DHT22;32412;51.478;5.694;2024-01-06T04:56:29;5.00;99.90
46676;DHT22;32412;51.478;5.694;2024-01-06T04:58:54;5.00;99.90
46676;DHT22;32412;51.478;5.694;2024-01-06T05:01:20;4.90;99.90
46676;DHT22;32412;51.478;5.694;2024-01-06T05:03:46;4.90;99.90
46676;DHT22;32412;51.478;5.694;2024-01-06T05:06:11;4.90;99.90
46676;DHT22;32412;51.478;5.694;2024-01-06T05:08:37;4.90;99.90
46676;DHT22;32412;51.478;5.694;2024-01-06T05:11:07;4.90;99.90
46676;DHT22;32412;51.478;5.694;2024-01-06T05:13:32;4.90;99.90
46676;DHT22;32412;51.478;5.694;2024-01-06T05:15:58;4.90;99.90
46676;DHT22;32412;51.478;5.694;2024-01-06T05:18:24;5.00;99.90
46676;DHT22;32412;51.478;5.694;2024-01-06T05:20:50;4.90;99.90
46676;DHT22;32412;51.478;5.694;2024-01-06T05:23:15;5.00;99.90
46676;DHT22;32412;51.478;5.694;2024-01-06T05:25:41;5.00;99.90
46676;DHT22;32412;51.478;5.694;2024-01-06T05:28:07;5.00;99.90
46676;DHT22;32412;51.478;5.694;2024-01-06T05:30:32;5.00;99.90
46676;DHT22;32412;51.478;5.694;2024-01-06T05:32:58;4.90;99.90
46676;DHT22;32412;51.478;5.694;2024-01-06T05:35:23;4.90;99.90
46676;DHT22;32412;51.478;5.694;2024-01-06T05:37:49;4.90;99.90
46676;DHT22;32412;51.478;5.694;2024-01-06T05:40:14;5.00;99.90
46676;DHT22;32412;51.478;5.694;2024-01-06T05:42:40;4.90;99.90
46676;DHT22;32412;51.478;5.694;2024-01-06T05:45:06;4.90;99.90
46676;DHT22;32412;51.478;5.694;2024-01-06T05:47:32;4.80;99.90
46676;DHT22;32412;51.478;5.694;2024-01-06T05:49:57;4.90;99.90
46676;DHT22;32412;51.478;5.694;2024-01-06T05:52:23;4.80;99.90
46676;DHT22;32412;51.478;5.694;2024-01-06T05:54:49;4.90;99.90
46676;DHT22;32412;51.478;5.694;2024-01-06T05:57:14;4.90;99.90
46676;DHT22;32412;51.478;5.694;2024-01-06T05:59:40;4.90;99.90
46676;DHT22;32412;51.478;5.694;2024-01-06T06:02:06;4.90;99.90
46676;DHT22;32412;51.478;5.694;2024-01-06T06:04:32;4.90;99.90
46676;DHT22;32412;51.478;5.694;2024-01-06T06:06:57;4.90;99.90
46676;DHT22;32412;51.478;5.694;2024-01-06T06:09:23;4.90;99.90
46676;DHT22;32412;51.478;5.694;2024-01-06T06:11:48;4.90;99.90
46676;DHT22;32412;51.478;5.694;2024-01-06T06:14:15;4.90;99.90
46676;DHT22;32412;51.478;5.694;2024-01-06T06:16:41;4.90;99.90
46676;DHT22;32412;51.478;5.694;2024-01-06T06:19:06;4.90;99.90
46676;DHT22;32412;51.478;5.694;2024-01-06T06:21:33;4.80;99.90
46676;DHT22;32412;51.478;5.694;2024-01-06T06:23:59;4.80;99.90
46676;DHT22;32412;51.478;5.694;2024-01-06T06:26:25;4.80;99.90
46676;DHT22;32412;51.478;5.694;2024-01-06T06:28:51;4.90;99.90
46676;DHT22;32412;51.478;5.694;2024-01-06T06:31:17;4.90;99.90
46676;DHT22;32412;51.478;5.694;2024-01-06T06:33:43;4.90;99.90
46676;DHT22;32412;51.478;5.694;2024-01-06T06:36:08;4.80;99.90
46676;DHT22;32412;51.478;5.694;2024-01-06T06:38:35;4.80;99.90
46676;DHT22;32412;51.478;5.694;2024-01-06T06:41:00;4.80;99.90
46676;DHT22;32412;51.478;5.694;2024-01-06T06:43:26;4.80;99.90
46676;DHT22;32412;51.478;5.694;2024-01-06T06:45:51;4.80;99.90
46676;DHT22;32412;51.478;5.694;2024-01-06T06:48:17;4.80;99.90
46676;DHT22;32412;51.478;5.694;2024-01-06T06:50:43;4.80;99.90
46676;DHT22;32412;51.478;5.694;2024-01-06T06:53:09;4.80;99.90
46676;DHT22;32412;51.478;5.694;2024-01-06T06:55:35;4.80;99.90
46676;DHT22;32412;51.478;5.694;2024-01-06T06:58:03;4.70;99.90
46676;DHT22;32412;51.478;5.694;2024-01-06T07:00:29;4.70;99.90
46676;DHT22;32412;51.478;5.694;2024-01-06T07:02:54;4.70;99.90
46676;DHT22;32412;51.478;5.694;2024-01-06T07:05:20;4.70;99.90
46676;DHT22;32412;51.478;5.694;2024-01-06T07:07:45;4.70;99.90
46676;DHT22;32412;51.478;5.694;2024-01-06T07:10:12;4.70;99.90
46676;DHT22;32412;51.478;5.694;2024-01-06T07:12:38;4.70;99.90
46676;DHT22;32412;51.478;5.694;2024-01-06T07:15:04;4.70;99.90
46676;DHT22;32412;51.478;5.694;2024-01-06T07:17:29;4.70;99.90
46676;DHT22;32412;51.478;5.694;2024-01-06T07:19:55;4.70;99.90
46676;DHT22;32412;51.478;5.694;2024-01-06T07:22:21;4.70;99.90
46676;DHT22;32412;51.478;5.694;2024-01-06T07:24:46;4.70;99.90
46676;DHT22;32412;51.478;5.694;2024-01-06T07:27:12;4.70;99.90
46676;DHT22;32412;51.478;5.694;2024-01-06T07:29:38;4.70;99.90
46676;DHT22;32412;51.478;5.694;2024-01-06T07:32:04;4.70;99.90
46676;DHT22;32412;51.478;5.694;2024-01-06T07:34:32;4.70;99.90
46676;DHT22;32412;51.478;5.694;2024-01-06T07:36:57;4.70;99.90
46676;DHT22;32412;51.478;5.694;2024-01-06T07:39:23;4.70;99.90
46676;DHT22;32412;51.478;5.694;2024-01-06T07:41:50;4.70;99.90
46676;DHT22;32412;51.478;5.694;2024-01-06T07:44:15;4.60;99.90
46676;DHT22;32412;51.478;5.694;2024-01-06T07:46:42;4.50;99.90
46676;DHT22;32412;51.478;5.694;2024-01-06T07:49:08;4.40;99.90
46676;DHT22;32412;51.478;5.694;2024-01-06T07:51:34;4.50;99.90
46676;DHT22;32412;51.478;5.694;2024-01-06T07:54:01;4.40;99.90
46676;DHT22;32412;51.478;5.694;2024-01-06T07:56:26;4.40;99.90
46676;DHT22;32412;51.478;5.694;2024-01-06T07:58:52;4.40;99.90
46676;DHT22;32412;51.478;5.694;2024-01-06T08:01:18;4.30;99.90
46676;DHT22;32412;51.478;5.694;2024-01-06T08:03:43;4.30;99.90
46676;DHT22;32412;51.478;5.694;2024-01-06T08:06:10;4.30;99.90
46676;DHT22;32412;51.478;5.694;2024-01-06T08:08:35;4.30;99.90
46676;DHT22;32412;51.478;5.694;2024-01-06T08:11:01;4.30;99.90
46676;DHT22;32412;51.478;5.694;2024-01-06T08:13:27;4.30;99.90
46676;DHT22;32412;51.478;5.694;2024-01-06T08:15:52;4.20;99.90
46676;DHT22;32412;51.478;5.694;2024-01-06T08:18:18;4.30;99.90
46676;DHT22;32412;51.478;5.694;2024-01-06T08:20:44;4.30;99.90
46676;DHT22;32412;51.478;5.694;2024-01-06T08:23:09;4.30;99.90
46676;DHT22;32412;51.478;5.694;2024-01-06T08:25:36;4.40;99.90
46676;DHT22;32412;51.478;5.694;2024-01-06T08:28:01;4.40;99.90
46676;DHT22;32412;51.478;5.694;2024-01-06T08:30:27;4.40;99.90
46676;DHT22;32412;51.478;5.694;2024-01-06T08:32:53;4.30;99.90
46676;DHT22;32412;51.478;5.694;2024-01-06T08:35:18;4.40;99.90
46676;DHT22;32412;51.478;5.694;2024-01-06T08:37:45;4.30;99.90
46676;DHT22;32412;51.478;5.694;2024-01-06T08:40:11;4.30;99.90
46676;DHT22;32412;51.478;5.694;2024-01-06T08:42:37;4.30;99.90
46676;DHT22;32412;51.478;5.694;2024-01-06T08:45:03;4.30;99.90
46676;DHT22;32412;51.478;5.694;2024-01-06T08:47:30;4.30;99.90
46676;DHT22;32412;51.478;5.694;2024-01-06T08:49:56;4.30;99.90
46676;DHT22;32412;51.478;5.694;2024-01-06T08:52:21;4.30;99.90
46676;DHT22;32412;51.478;5.694;2024-01-06T08:54:47;4.20;99.90
46676;DHT22;32412;51.478;5.694;2024-01-06T08:57:15;4.20;99.90
46676;DHT22;32412;51.478;5.694;2024-01-06T08:59:40;4.20;99.90
46676;DHT22;32412;51.478;5.694;2024-01-06T09:02:06;4.20;99.90
46676;DHT22;32412;51.478;5.694;2024-01-06T09:04:32;4.10;99.90
46676;DHT22;32412;51.478;5.694;2024-01-06T09:06:57;4.10;99.90
46676;DHT22;32412;51.478;5.694;2024-01-06T09:09:23;4.10;99.90
46676;DHT22;32412;51.478;5.694;2024-01-06T09:11:49;4.00;99.90
46676;DHT22;32412;51.478;5.694;2024-01-06T09:14:16;4.00;99.90
46676;DHT22;32412;51.478;5.694;2024-01-06T09:16:42;4.00;99.90
46676;DHT22;32412;51.478;5.694;2024-01-06T09:19:07;4.00;99.90
46676;DHT22;32412;51.478;5.694;2024-01-06T09:21:33;4.00;99.90
46676;DHT22;32412;51.478;5.694;2024-01-06T09:23:59;4.00;99.90
46676;DHT22;32412;51.478;5.694;2024-01-06T09:26:26;4.00;99.90
46676;DHT22;32412;51.478;5.694;2024-01-06T09:28:51;4.00;99.90
46676;DHT22;32412;51.478;5.694;2024-01-06T09:31:17;3.90;99.90
46676;DHT22;32412;51.478;5.694;2024-01-06T09:33:42;4.00;99.90
46676;DHT22;32412;51.478;5.694;2024-01-06T09:36:08;4.00;99.90
46676;DHT22;32412;51.478;5.694;2024-01-06T09:38:37;4.10;99.90
46676;DHT22;32412;51.478;5.694;2024-01-06T09:41:02;4.10;99.90
46676;DHT22;32412;51.478;5.694;2024-01-06T09:43:28;4.10;99.90
46676;DHT22;32412;51.478;5.694;2024-01-06T09:46:06;4.10;99.90
46676;DHT22;32412;51.478;5.694;2024-01-06T09:48:40;4.10;99.90
46676;DHT22;32412;51.478;5.694;2024-01-06T09:51:12;4.10;99.90
46676;DHT22;32412;51.478;5.694;2024-01-06T09:53:43;4.10;99.90
46676;DHT22;32412;51.478;5.694;2024-01-06T09:56:15;4.10;99.90
46676;DHT22;32412;51.478;5.694;2024-01-06T09:58:41;4.10;99.90
46676;DHT22;32412;51.478;5.694;2024-01-06T10:01:07;4.10;99.90
46676;DHT22;32412;51.478;5.694;2024-01-06T10:03:35;4.10;99.90
46676;DHT22;32412;51.478;5.694;2024-01-06T10:06:01;4.10;99.90
46676;DHT22;32412;51.478;5.694;2024-01-06T10:08:29;4.10;99.90
46676;DHT22;32412;51.478;5.694;2024-01-06T10:10:55;4.10;99.90
46676;DHT22;32412;51.478;5.694;2024-01-06T10:13:21;4.10;99.90
46676;DHT22;32412;51.478;5.694;2024-01-06T10:15:49;4.10;99.90
46676;DHT22;32412;51.478;5.694;2024-01-06T10:18:15;4.10;99.90
46676;DHT22;32412;51.478;5.694;2024-01-06T10:20:41;4.10;99.90
46676;DHT22;32412;51.478;5.694;2024-01-06T10:23:07;4.10;99.90
46676;DHT22;32412;51.478;5.694;2024-01-06T10:25:32;4.10;99.90
46676;DHT22;32412;51.478;5.694;2024-01-06T10:28:00;4.10;99.90
46676;DHT22;32412;51.478;5.694;2024-01-06T10:30:28;4.10;99.90
46676;DHT22;32412;51.478;5.694;2024-01-06T10:32:54;4.20;99.90
46676;DHT22;32412;51.478;5.694;2024-01-06T10:35:19;4.20;99.90
46676;DHT22;32412;51.478;5.694;2024-01-06T10:37:46;4.20;99.90
46676;DHT22;32412;51.478;5.694;2024-01-06T10:40:14;4.20;99.90
46676;DHT22;32412;51.478;5.694;2024-01-06T10:42:41;4.20;99.90
46676;DHT22;32412;51.478;5.694;2024-01-06T10:45:09;4.20;99.90
46676;DHT22;32412;51.478;5.694;2024-01-06T10:47:36;4.20;99.90
46676;DHT22;32412;51.478;5.694;2024-01-06T10:50:02;4.10;99.90
46676;DHT22;32412;51.478;5.694;2024-01-06T10:52:29;4.10;99.90
46676;DHT22;32412;51.478;5.694;2024-01-06T10:54:55;4.00;99.90
46676;DHT22;32412;51.478;5.694;2024-01-06T10:57:21;3.90;99.90
46676;DHT22;32412;51.478;5.694;2024-01-06T10:59:50;4.00;99.90
46676;DHT22;32412;51.478;5.694;2024-01-06T11:02:17;3.90;99.90
46676;DHT22;32412;51.478;5.694;2024-01-06T11:04:46;3.90;99.90
46676;DHT22;32412;51.478;5.694;2024-01-06T11:07:18;3.90;99.90
46676;DHT22;32412;51.478;5.694;2024-01-06T11:09:58;4.00;99.90
46676;DHT22;32412;51.478;5.694;2024-01-06T11:12:25;4.00;99.90
46676;DHT22;32412;51.478;5.694;2024-01-06T11:14:53;4.00;99.90
46676;DHT22;32412;51.478;5.694;2024-01-06T11:17:51;4.00;99.90
46676;DHT22;32412;51.478;5.694;2024-01-06T11:20:21;4.00;99.90
46676;DHT22;32412;51.478;5.694;2024-01-06T11:22:48;4.00;99.90
46676;DHT22;32412;51.478;5.694;2024-01-06T11:25:16;4.00;99.90
46676;DHT22;32412;51.478;5.694;2024-01-06T11:27:43;4.10;99.90
46676;DHT22;32412;51.478;5.694;2024-01-06T11:30:23;4.00;99.90
46676;DHT22;32412;51.478;5.694;2024-01-06T11:32:51;4.00;99.90
46676;DHT22;32412;51.478;5.694;2024-01-06T11:35:19;4.00;99.90
46676;DHT22;32412;51.478;5.694;2024-01-06T11:40:11;4.10;99.90
46676;DHT22;32412;51.478;5.694;2024-01-06T11:42:41;4.10;99.90
46676;DHT22;32412;51.478;5.694;2024-01-06T11:45:08;4.10;99.90
46676;DHT22;32412;51.478;5.694;2024-01-06T11:47:34;4.10;99.90
46676;DHT22;32412;51.478;5.694;2024-01-06T11:50:02;4.10;99.90
46676;DHT22;32412;51.478;5.694;2024-01-06T11:52:34;4.10;99.90
46676;DHT22;32412;51.478;5.694;2024-01-06T11:55:00;4.10;99.90
46676;DHT22;32412;51.478;5.694;2024-01-06T11:57:27;4.00;99.90
46676;DHT22;32412;51.478;5.694;2024-01-06T11:59:53;4.00;99.90
46676;DHT22;32412;51.478;5.694;2024-01-06T12:02:19;4.10;99.90
46676;DHT22;32412;51.478;5.694;2024-01-06T12:04:53;4.00;99.90
46676;DHT22;32412;51.478;5.694;2024-01-06T12:07:20;4.10;99.90
46676;DHT22;32412;51.478;5.694;2024-01-06T12:09:48;4.10;99.90
46676;DHT22;32412;51.478;5.694;2024-01-06T12:12:17;4.10;99.90
46676;DHT22;32412;51.478;5.694;2024-01-06T12:14:44;4.00;99.90
46676;DHT22;32412;51.478;5.694;2024-01-06T12:17:11;4.10;99.90
46676;DHT22;32412;51.478;5.694;2024-01-06T12:19:39;4.00;99.90
46676;DHT22;32412;51.478;5.694;2024-01-06T12:22:11;4.10;99.90
46676;DHT22;32412;51.478;5.694;2024-01-06T12:24:38;4.00;99.90
46676;DHT22;32412;51.478;5.694;2024-01-06T12:27:03;4.00;99.90
46676;DHT22;32412;51.478;5.694;2024-01-06T12:29:32;4.00;99.90
46676;DHT22;32412;51.478;5.694;2024-01-06T12:31:59;4.00;99.90
46676;DHT22;32412;51.478;5.694;2024-01-06T12:34:25;4.10;99.90
46676;DHT22;32412;51.478;5.694;2024-01-06T12:36:55;4.10;99.90
46676;DHT22;32412;51.478;5.694;2024-01-06T12:39:21;4.00;99.90
46676;DHT22;32412;51.478;5.694;2024-01-06T12:41:48;4.10;99.90
46676;DHT22;32412;51.478;5.694;2024-01-06T12:44:15;4.10;99.90
46676;DHT22;32412;51.478;5.694;2024-01-06T12:46:41;4.10;99.90
46676;DHT22;32412;51.478;5.694;2024-01-06T12:49:07;4.00;99.90
46676;DHT22;32412;51.478;5.694;2024-01-06T12:51:33;4.00;99.90
46676;DHT22;32412;51.478;5.694;2024-01-06T12:53:58;4.00;99.90
46676;DHT22;32412;51.478;5.694;2024-01-06T12:56:26;4.00;99.90
46676;DHT22;32412;51.478;5.694;2024-01-06T12:58:51;4.00;99.90
46676;DHT22;32412;51.478;5.694;2024-01-06T13:01:18;4.00;99.90
46676;DHT22;32412;51.478;5.694;2024-01-06T13:03:44;4.00;99.90
46676;DHT22;32412;51.478;5.694;2024-01-06T13:06:10;4.00;99.90
46676;DHT22;32412;51.478;5.694;2024-01-06T13:08:35;4.00;99.90
46676;DHT22;32412;51.478;5.694;2024-01-06T13:11:01;3.90;99.90
46676;DHT22;32412;51.478;5.694;2024-01-06T13:13:27;4.00;99.90
46676;DHT22;32412;51.478;5.694;2024-01-06T13:15:52;4.00;99.90
46676;DHT22;32412;51.478;5.694;2024-01-06T13:18:18;4.00;99.90
46676;DHT22;32412;51.478;5.694;2024-01-06T13:20:44;4.00;99.90
46676;DHT22;32412;51.478;5.694;2024-01-06T13:23:10;3.90;99.90
46676;DHT22;32412;51.478;5.694;2024-01-06T13:25:37;3.80;99.90
46676;DHT22;32412;51.478;5.694;2024-01-06T13:28:06;3.80;99.90
46676;DHT22;32412;51.478;5.694;2024-01-06T13:30:32;3.80;99.90
46676;DHT22;32412;51.478;5.694;2024-01-06T13:32:58;3.90;99.90
46676;DHT22;32412;51.478;5.694;2024-01-06T13:35:24;3.90;99.90
46676;DHT22;32412;51.478;5.694;2024-01-06T13:37:53;3.90;99.90
46676;DHT22;32412;51.478;5.694;2024-01-06T13:40:21;3.90;99.90
46676;DHT22;32412;51.478;5.694;2024-01-06T13:42:51;3.90;99.90
46676;DHT22;32412;51.478;5.694;2024-01-06T13:45:18;3.90;99.90
46676;DHT22;32412;51.478;5.694;2024-01-06T13:47:44;3.80;99.90
46676;DHT22;32412;51.478;5.694;2024-01-06T13:50:14;3.80;99.90
46676;DHT22;32412;51.478;5.694;2024-01-06T13:52:40;3.80;99.90
46676;DHT22;32412;51.478;5.694;2024-01-06T13:55:06;3.80;99.90
46676;DHT22;32412;51.478;5.694;2024-01-06T13:57:33;3.80;99.90
46676;DHT22;32412;51.478;5.694;2024-01-06T13:59:59;3.80;99.90
46676;DHT22;32412;51.478;5.694;2024-01-06T14:02:25;3.80;99.90
46676;DHT22;32412;51.478;5.694;2024-01-06T14:04:51;3.90;99.90
46676;DHT22;32412;51.478;5.694;2024-01-06T14:07:18;3.90;99.90
46676;DHT22;32412;51.478;5.694;2024-01-06T14:09:48;3.80;99.90
46676;DHT22;32412;51.478;5.694;2024-01-06T14:12:13;3.80;99.90
46676;DHT22;32412;51.478;5.694;2024-01-06T14:14:40;3.80;99.90
46676;DHT22;32412;51.478;5.694;2024-01-06T14:17:07;3.80;99.90
46676;DHT22;32412;51.478;5.694;2024-01-06T14:19:33;3.80;99.90
46676;DHT22;32412;51.478;5.694;2024-01-06T14:21:59;3.80;99.90
46676;DHT22;32412;51.478;5.694;2024-01-06T14:24:25;3.80;99.90
46676;DHT22;32412;51.478;5.694;2024-01-06T14:26:51;3.80;99.90
46676;DHT22;32412;51.478;5.694;2024-01-06T14:29:19;3.80;99.90
46676;DHT22;32412;51.478;5.694;2024-01-06T14:31:44;3.80;99.90
46676;DHT22;32412;51.478;5.694;2024-01-06T14:34:10;3.80;99.90
46676;DHT22;32412;51.478;5.694;2024-01-06T14:36:36;3.80;99.90
46676;DHT22;32412;51.478;5.694;2024-01-06T14:39:01;3.80;99.90
46676;DHT22;32412;51.478;5.694;2024-01-06T14:41:29;3.80;99.90
46676;DHT22;32412;51.478;5.694;2024-01-06T14:43:55;3.80;99.90
46676;DHT22;32412;51.478;5.694;2024-01-06T14:46:20;3.80;99.90
46676;DHT22;32412;51.478;5.694;2024-01-06T14:48:46;3.80;99.90
46676;DHT22;32412;51.478;5.694;2024-01-06T14:51:12;3.80;99.90
46676;DHT22;32412;51.478;5.694;2024-01-06T14:53:38;3.80;99.90
46676;DHT22;32412;51.478;5.694;2024-01-06T14:56:04;3.80;99.90
46676;DHT22;32412;51.478;5.694;2024-01-06T14:58:30;3.80;99.90
46676;DHT22;32412;51.478;5.694;2024-01-06T15:00:56;3.80;99.90
46676;DHT22;32412;51.478;5.694;2024-01-06T15:03:21;3.80;99.90
46676;DHT22;32412;51.478;5.694;2024-01-06T15:05:49;3.80;99.90
46676;DHT22;32412;51.478;5.694;2024-01-06T15:08:15;3.70;99.90
46676;DHT22;32412;51.478;5.694;2024-01-06T15:10:40;3.80;99.90
46676;DHT22;32412;51.478;5.694;2024-01-06T15:13:06;3.80;99.90
46676;DHT22;32412;51.478;5.694;2024-01-06T15:15:32;3.70;99.90
46676;DHT22;32412;51.478;5.694;2024-01-06T15:17:58;3.70;99.90
46676;DHT22;32412;51.478;5.694;2024-01-06T15:20:23;3.70;99.90
46676;DHT22;32412;51.478;5.694;2024-01-06T15:22:49;3.70;99.90
46676;DHT22;32412;51.478;5.694;2024-01-06T15:25:15;3.70;99.90
46676;DHT22;32412;51.478;5.694;2024-01-06T15:27:43;3.70;99.90
46676;DHT22;32412;51.478;5.694;2024-01-06T15:30:09;3.70;99.90
46676;DHT22;32412;51.478;5.694;2024-01-06T15:32:38;3.70;99.90
46676;DHT22;32412;51.478;5.694;2024-01-06T15:35:06;3.70;99.90
46676;DHT22;32412;51.478;5.694;2024-01-06T15:37:32;3.70;99.90
46676;DHT22;32412;51.478;5.694;2024-01-06T15:39:58;3.70;99.90
46676;DHT22;32412;51.478;5.694;2024-01-06T15:42:23;3.70;99.90